createdAt,value
2017-02-02T10:30:33.030Z,2185
2017-02-02T10:31:33.001Z,2445
2017-02-02T10:32:33.024Z,2355
2017-02-02T10:33:32.610Z,2180
2017-02-02T10:34:32.984Z,2275
2017-02-02T10:35:32.951Z,2400
2017-02-02T10:36:32.937Z,1995
2017-02-02T10:37:32.925Z,2160
2017-02-02T10:38:32.916Z,2065
2017-02-02T10:39:32.898Z,2095
2017-02-02T10:40:32.894Z,1785
2017-02-02T10:41:32.869Z,1935
2017-02-02T10:42:32.851Z,1945
2017-02-02T10:43:32.842Z,1995
2017-02-02T10:44:32.827Z,2220
2017-02-02T10:45:32.801Z,2485
2017-02-02T10:46:32.780Z,2715
2017-02-02T10:47:32.772Z,2510
2017-02-02T10:48:32.740Z,2255
2017-02-02T10:49:32.740Z,2315
2017-02-02T10:50:32.728Z,2315
2017-02-02T10:51:32.714Z,2470
2017-02-02T10:52:32.704Z,2610
2017-02-02T10:53:32.666Z,2510
2017-02-02T10:54:32.654Z,2315
2017-02-02T10:55:32.644Z,2095
2017-02-02T10:56:32.625Z,815
2017-02-02T10:57:32.609Z,1760
2017-02-02T10:58:32.581Z,1720
2017-02-02T10:59:32.563Z,1990
2017-02-02T11:00:32.168Z,2155
2017-02-02T11:01:32.550Z,1375
2017-02-02T11:02:32.524Z,2415
2017-02-02T11:03:32.489Z,2385
2017-02-02T11:04:32.497Z,2060
2017-02-02T11:05:32.478Z,1850
2017-02-02T11:06:32.465Z,2030
2017-02-02T11:07:32.447Z,2175
2017-02-02T11:08:32.048Z,1825
2017-02-02T11:09:32.408Z,2155
2017-02-02T11:10:32.408Z,2320
2017-02-02T11:11:32.404Z,2330
2017-02-02T11:12:32.363Z,2420
2017-02-02T11:13:32.349Z,2555
2017-02-02T11:14:32.311Z,2430
2017-02-02T11:15:32.326Z,2415
2017-02-02T11:16:32.298Z,2330
2017-02-02T11:17:32.288Z,2260
2017-02-02T11:18:32.275Z,2610
2017-02-02T11:19:32.238Z,2300
2017-02-02T11:20:32.229Z,2150
2017-02-02T11:21:32.205Z,2505
2017-02-02T11:22:32.187Z,2450
2017-02-02T11:23:32.162Z,2425
2017-02-02T11:24:31.773Z,2690
2017-02-02T11:25:31.763Z,2535
2017-02-02T11:26:31.755Z,2420
2017-02-02T11:27:31.726Z,2530
2017-02-02T11:28:31.708Z,2550
2017-02-02T11:29:32.087Z,2490
2017-02-02T11:30:31.674Z,2220
2017-02-02T11:31:31.679Z,2170
2017-02-02T11:32:32.042Z,2195
2017-02-02T11:33:31.620Z,2370
2017-02-02T11:34:31.969Z,2525
2017-02-02T11:35:31.984Z,1460
2017-02-02T11:36:31.980Z,1135
2017-02-02T11:37:31.931Z,2505
2017-02-02T11:38:31.548Z,780
2017-02-02T11:39:31.910Z,1770
2017-02-02T11:40:31.872Z,2455
2017-02-02T11:41:31.880Z,2575
2017-02-02T11:42:31.881Z,2585
2017-02-02T11:43:31.834Z,2400
2017-02-02T11:44:31.807Z,2175
2017-02-02T11:45:31.802Z,2090
2017-02-02T11:46:31.785Z,2205
2017-02-02T11:47:31.754Z,2480
2017-02-02T11:48:31.743Z,2375
2017-02-02T11:49:31.723Z,2165
2017-02-02T11:50:31.710Z,2190
2017-02-02T11:51:31.714Z,2120
2017-02-02T11:52:31.680Z,2305
2017-02-02T11:53:31.671Z,2280
2017-02-02T11:54:31.635Z,2215
2017-02-02T11:55:31.638Z,2450
2017-02-02T11:56:31.601Z,2520
2017-02-02T11:57:31.580Z,2220
2017-02-02T11:58:31.577Z,2175
2017-02-02T11:59:31.539Z,2210
2017-02-02T12:00:31.554Z,2025
2017-02-02T12:01:31.142Z,2425
2017-02-02T12:02:31.517Z,2485
2017-02-02T12:03:31.496Z,2505
2017-02-02T12:04:31.490Z,2445
2017-02-02T12:05:31.478Z,715
2017-02-02T12:06:31.448Z,750
2017-02-02T12:07:31.434Z,2175
2017-02-02T12:08:31.421Z,2505
2017-02-02T12:09:31.397Z,2505
2017-02-02T12:10:31.378Z,2465
2017-02-02T12:11:31.363Z,2355
2017-02-02T12:12:31.364Z,2525
2017-02-02T12:13:31.326Z,2545
2017-02-02T12:14:31.312Z,760
2017-02-02T12:15:31.295Z,2665
2017-02-02T12:16:31.287Z,2295
2017-02-02T12:17:31.283Z,1480
2017-02-02T12:18:31.295Z,2780
2017-02-02T12:19:31.240Z,2580
2017-02-02T12:20:31.203Z,985
2017-02-02T12:21:31.183Z,2275
2017-02-02T12:22:31.188Z,2415
2017-02-02T12:23:31.197Z,1890
2017-02-02T12:24:31.146Z,1825
2017-02-02T12:25:31.152Z,1500
2017-02-02T12:26:31.124Z,2270
2017-02-02T12:27:31.095Z,2525
2017-02-02T12:28:31.122Z,2575
2017-02-02T12:29:31.074Z,2440
2017-02-02T12:30:31.066Z,2260
2017-02-02T12:31:31.040Z,1750
2017-02-02T12:32:31.013Z,2100
2017-02-02T12:33:31.001Z,2325
2017-02-02T12:34:30.958Z,885
2017-02-02T12:35:30.955Z,1135
2017-02-02T12:36:30.942Z,2245
2017-02-02T12:37:30.936Z,1310
2017-02-02T12:38:30.922Z,1395
2017-02-02T12:39:30.910Z,1370
2017-02-02T12:40:30.502Z,1185
2017-02-02T12:41:30.875Z,805
2017-02-02T12:42:30.847Z,2035
2017-02-02T12:43:30.068Z,1380
2017-02-02T12:44:30.823Z,2085
2017-02-02T12:45:30.805Z,1845
2017-02-02T12:46:30.803Z,1900
2017-02-02T12:47:30.778Z,2125
2017-02-02T12:48:30.736Z,2345
2017-02-02T12:49:30.720Z,1850
2017-02-02T12:50:30.701Z,2200
2017-02-02T12:51:30.677Z,990
2017-02-02T12:52:30.273Z,2065
2017-02-02T12:53:30.663Z,2095
2017-02-02T12:54:30.609Z,1970
2017-02-02T12:55:30.587Z,2075
2017-02-02T12:56:30.590Z,1985
2017-02-02T12:57:30.571Z,1970
2017-02-02T12:58:30.544Z,1865
2017-02-02T12:59:30.534Z,1830
2017-02-02T13:00:30.498Z,1945
2017-02-02T13:01:30.505Z,1945
2017-02-02T13:02:30.499Z,2055
2017-02-02T13:03:30.476Z,2080
2017-02-02T13:04:30.457Z,2005
2017-02-02T13:05:30.048Z,2000
2017-02-02T13:06:30.027Z,2055
2017-02-02T13:07:30.380Z,2025
2017-02-02T13:08:30.378Z,1950
2017-02-02T13:09:30.372Z,1645
2017-02-02T13:10:30.377Z,1595
2017-02-02T13:11:30.324Z,1345
2017-02-02T13:12:30.314Z,1260
2017-02-02T13:13:30.288Z,1345
2017-02-02T13:14:30.278Z,1245
2017-02-02T13:15:30.256Z,1170
2017-02-02T13:16:30.241Z,1085
2017-02-02T13:17:30.214Z,1255
2017-02-02T13:18:29.827Z,1345
2017-02-02T13:19:30.211Z,1415
2017-02-02T13:20:29.801Z,1520
2017-02-02T13:21:30.154Z,1460
2017-02-02T13:22:30.155Z,1400
2017-02-02T13:23:30.132Z,1405
2017-02-02T13:24:30.112Z,1455
2017-02-02T13:25:30.074Z,1585
2017-02-02T13:26:30.074Z,1735
2017-02-02T13:27:30.086Z,1755
2017-02-02T13:28:30.051Z,1580
2017-02-02T13:29:29.648Z,1480
2017-02-02T13:30:30.007Z,1525
2017-02-02T13:31:29.971Z,1475
2017-02-02T13:32:29.977Z,1380
2017-02-02T13:33:29.936Z,1285
2017-02-02T13:34:29.555Z,1260
2017-02-02T13:35:29.903Z,1295
2017-02-02T13:36:29.909Z,1315
2017-02-02T13:37:29.888Z,1315
2017-02-02T13:38:29.870Z,1270
2017-02-02T13:39:29.842Z,1230
2017-02-02T13:40:29.840Z,1200
2017-02-02T13:41:29.429Z,1120
2017-02-02T13:42:29.803Z,1080
2017-02-02T13:43:29.769Z,1070
2017-02-02T13:44:29.754Z,1120
2017-02-02T13:45:29.737Z,1100
2017-02-02T13:46:29.711Z,1125
2017-02-02T13:47:29.689Z,1040
2017-02-02T13:48:29.692Z,1075
2017-02-02T13:49:29.693Z,1055
2017-02-02T13:50:29.668Z,1105
2017-02-02T13:51:29.646Z,1085
2017-02-02T13:52:29.611Z,1070
2017-02-02T13:53:29.604Z,1025
2017-02-02T13:54:29.607Z,995
2017-02-02T13:55:29.569Z,975
2017-02-02T13:56:29.147Z,980
2017-02-02T13:57:29.149Z,915
2017-02-02T13:58:29.499Z,935
2017-02-02T13:59:29.492Z,1000
2017-02-02T14:00:29.519Z,1025
2017-02-02T14:01:29.467Z,975
2017-02-02T14:02:29.421Z,925
2017-02-02T14:03:29.427Z,910
2017-02-02T14:04:29.398Z,895
2017-02-02T14:05:29.369Z,870
2017-02-02T14:06:29.362Z,840
2017-02-02T14:07:29.344Z,830
2017-02-02T14:08:29.320Z,835
2017-02-02T14:09:29.311Z,850
2017-02-02T14:10:28.909Z,825
2017-02-02T14:11:29.264Z,795
2017-02-02T14:12:29.255Z,775
2017-02-02T14:13:29.252Z,755
2017-02-02T14:14:29.252Z,740
2017-02-02T14:15:29.197Z,725
2017-02-02T14:16:29.177Z,725
2017-02-02T14:17:29.168Z,725
2017-02-02T14:18:29.161Z,730
2017-02-02T14:19:29.143Z,735
2017-02-02T14:20:29.113Z,710
2017-02-02T14:21:29.094Z,705
2017-02-02T14:22:29.089Z,720
2017-02-02T14:23:29.060Z,730
2017-02-02T14:24:29.060Z,740
2017-02-02T14:25:29.008Z,720
2017-02-02T14:26:29.008Z,700
2017-02-02T14:27:28.996Z,685
2017-02-02T14:28:28.969Z,670
2017-02-02T14:29:28.955Z,670
2017-02-02T14:30:28.952Z,665
2017-02-02T14:31:28.932Z,660
2017-02-02T14:32:28.913Z,655
2017-02-02T14:33:28.876Z,640
2017-02-02T14:34:28.869Z,630
2017-02-02T14:35:28.849Z,630
2017-02-02T14:36:28.841Z,620
2017-02-02T14:37:28.830Z,615
2017-02-02T14:38:28.799Z,615
2017-02-02T14:39:28.776Z,610
2017-02-02T14:40:28.750Z,605
2017-02-02T14:41:28.733Z,600
2017-02-02T14:42:28.720Z,600
2017-02-02T14:43:28.716Z,590
2017-02-02T14:44:28.683Z,575
2017-02-02T14:45:28.662Z,565
2017-02-02T14:46:28.665Z,565
2017-02-02T14:47:28.249Z,560
2017-02-02T14:48:28.614Z,550
2017-02-02T14:49:28.581Z,540
2017-02-02T14:50:28.590Z,535
2017-02-02T14:51:28.564Z,525
2017-02-02T14:52:28.540Z,520
2017-02-02T14:53:28.516Z,510
2017-02-02T14:54:28.492Z,505
2017-02-02T14:55:28.478Z,490
2017-02-02T14:56:28.481Z,480
2017-02-02T14:57:28.451Z,470
2017-02-02T14:58:28.433Z,460
2017-02-02T14:59:28.419Z,450
2017-02-02T15:00:41.822Z,440
2017-02-02T15:01:28.398Z,435
2017-02-02T15:02:28.367Z,430
2017-02-02T15:03:28.350Z,425
2017-02-02T15:04:28.309Z,420
2017-02-02T15:05:28.532Z,410
2017-02-02T15:06:28.291Z,405
2017-02-02T15:07:28.277Z,400
2017-02-02T15:08:27.863Z,395
2017-02-02T15:09:27.862Z,390
2017-02-02T15:10:27.821Z,385
2017-02-02T15:11:28.184Z,380
2017-02-02T15:12:28.180Z,375
2017-02-02T15:13:27.771Z,370
2017-02-02T15:14:28.139Z,370
2017-02-02T15:15:27.739Z,365
2017-02-02T15:16:28.135Z,360
2017-02-02T15:17:28.108Z,355
2017-02-02T15:18:28.101Z,345
2017-02-02T15:19:28.032Z,340
2017-02-02T15:20:28.052Z,335
2017-02-02T15:21:28.021Z,325
2017-02-02T15:22:27.985Z,320
2017-02-02T15:23:27.984Z,310
2017-02-02T15:24:27.973Z,300
2017-02-02T15:25:27.956Z,295
2017-02-02T15:26:27.915Z,290
2017-02-02T15:27:27.907Z,280
2017-02-02T15:28:27.890Z,275
2017-02-02T15:29:27.881Z,265
2017-02-02T15:30:27.858Z,260
2017-02-02T15:31:27.850Z,250
2017-02-02T15:32:27.808Z,245
2017-02-02T15:33:27.797Z,240
2017-02-02T15:34:27.788Z,235
2017-02-02T15:35:27.782Z,225
2017-02-02T15:36:27.745Z,225
2017-02-02T15:37:27.728Z,220
2017-02-02T15:38:27.705Z,215
2017-02-02T15:39:27.896Z,210
2017-02-02T15:40:41.295Z,210
2017-02-02T15:41:27.655Z,200
2017-02-02T15:42:27.625Z,195
2017-02-02T15:43:27.607Z,190
2017-02-02T15:44:27.594Z,185
2017-02-02T15:45:27.766Z,180
2017-02-02T15:46:27.566Z,170
2017-02-02T15:47:27.544Z,165
2017-02-02T15:48:27.507Z,160
2017-02-02T15:49:27.507Z,150
2017-02-02T15:50:27.491Z,145
2017-02-02T15:51:27.478Z,140
2017-02-02T15:52:27.456Z,135
2017-02-02T15:53:27.435Z,130
2017-02-02T15:54:27.414Z,125
2017-02-02T15:55:27.398Z,115
2017-02-02T15:56:27.400Z,110
2017-02-02T15:57:27.369Z,105
2017-02-02T15:58:27.357Z,100
2017-02-02T15:59:27.349Z,95
2017-02-02T16:00:27.311Z,90
2017-02-02T16:01:27.308Z,85
2017-02-02T16:02:27.286Z,80
2017-02-02T16:03:27.260Z,75
2017-02-02T16:04:27.247Z,75
2017-02-02T16:05:27.233Z,70
2017-02-02T16:06:27.216Z,65
2017-02-02T16:07:27.372Z,65
2017-02-02T16:08:27.166Z,60
2017-02-02T16:09:27.167Z,55
2017-02-02T16:10:27.164Z,50
2017-02-02T16:11:27.130Z,50
2017-02-02T16:12:27.307Z,45
2017-02-02T16:13:40.954Z,40
2017-02-02T16:14:27.051Z,35
2017-02-02T16:15:27.045Z,35
2017-02-02T16:16:27.029Z,30
2017-02-02T16:17:26.994Z,30
2017-02-02T16:18:40.624Z,25
2017-02-02T16:19:27.166Z,25
2017-02-02T16:20:26.940Z,20
2017-02-02T16:21:26.921Z,20
2017-02-02T16:22:26.922Z,15
2017-02-02T16:23:26.523Z,15
2017-02-02T16:24:26.495Z,10
2017-02-02T16:25:26.860Z,10
2017-02-02T16:26:26.828Z,10
2017-02-02T16:27:26.446Z,10
2017-02-02T16:28:26.030Z,5
2017-02-02T16:29:26.414Z,5
2017-02-02T16:30:26.373Z,5
2017-02-02T16:31:26.755Z,5
2017-02-02T16:32:26.744Z,5
2017-02-02T16:33:26.315Z,0
2017-02-02T16:34:26.338Z,0
2017-02-02T16:35:26.687Z,0
2017-02-02T16:36:26.651Z,0
2017-02-02T16:37:26.669Z,0
2017-02-02T16:38:26.621Z,0
2017-02-02T16:39:26.607Z,0
2017-02-02T16:40:26.587Z,0
2017-02-02T16:41:40.240Z,0
2017-02-02T16:42:26.540Z,0
2017-02-02T16:43:26.543Z,0
2017-02-02T16:44:26.115Z,0
2017-02-02T16:45:26.338Z,0
2017-02-02T16:46:26.100Z,0
2017-02-02T16:47:26.648Z,0
2017-02-02T16:48:26.464Z,0
2017-02-02T16:49:26.414Z,0
2017-02-02T16:50:26.435Z,0
2017-02-02T16:51:26.395Z,0
2017-02-02T16:52:40.017Z,0
2017-02-02T16:53:26.351Z,0
2017-02-02T16:54:26.322Z,0
2017-02-02T16:55:26.314Z,0
2017-02-02T16:56:26.286Z,0
2017-02-02T16:57:26.276Z,0
2017-02-02T16:58:25.871Z,0
2017-02-02T16:59:26.247Z,0
2017-02-02T17:00:25.831Z,0
2017-02-02T17:01:26.208Z,0
2017-02-02T17:02:26.189Z,0
2017-02-02T17:03:26.165Z,0
2017-02-02T17:04:26.142Z,0
2017-02-02T17:05:26.116Z,0
2017-02-02T17:06:26.104Z,0
2017-02-02T17:07:26.102Z,0
2017-02-02T17:08:26.073Z,0
2017-02-02T17:09:26.067Z,0
2017-02-02T17:10:26.047Z,0
2017-02-02T17:11:26.013Z,0
2017-02-02T17:12:25.997Z,0
2017-02-02T17:13:25.984Z,0
2017-02-02T17:14:25.966Z,0
2017-02-02T17:15:25.939Z,0
2017-02-02T17:16:25.927Z,0
2017-02-02T17:17:25.916Z,0
2017-02-02T17:18:25.885Z,0
2017-02-02T17:19:25.874Z,0
2017-02-02T17:20:26.070Z,0
2017-02-02T17:21:25.650Z,0
2017-02-02T17:22:25.826Z,0
2017-02-02T17:23:25.801Z,0
2017-02-02T17:24:25.768Z,0
2017-02-02T17:25:25.763Z,0
2017-02-02T17:26:25.741Z,0
2017-02-02T17:27:25.723Z,0
2017-02-02T17:28:25.696Z,0
2017-02-02T17:29:25.318Z,0
2017-02-02T17:30:25.678Z,0
2017-02-02T17:31:25.648Z,0
2017-02-02T17:32:25.256Z,0
2017-02-02T17:33:25.632Z,0
2017-02-02T17:34:25.603Z,0
2017-02-02T17:35:25.579Z,0
2017-02-02T17:36:25.553Z,0
2017-02-02T17:37:25.552Z,0
2017-02-02T17:38:25.514Z,0
2017-02-02T17:39:25.504Z,0
2017-02-02T17:40:25.473Z,0
2017-02-02T17:41:25.503Z,0
2017-02-02T17:42:25.475Z,0
2017-02-02T17:43:25.446Z,0
2017-02-02T17:44:25.044Z,0
2017-02-02T17:45:25.376Z,0
2017-02-02T17:46:25.380Z,0
2017-02-02T17:47:25.345Z,0
2017-02-02T17:48:25.544Z,0
2017-02-02T17:49:25.135Z,0
2017-02-02T17:50:25.305Z,0
2017-02-02T17:51:25.303Z,0
2017-02-02T17:52:25.288Z,0
2017-02-02T17:53:25.250Z,0
2017-02-02T17:54:38.879Z,0
2017-02-02T17:55:25.209Z,0
2017-02-02T17:56:25.186Z,0
2017-02-02T17:57:25.201Z,0
2017-02-02T17:58:25.181Z,0
2017-02-02T17:59:25.328Z,0
2017-02-02T18:00:25.324Z,0
2017-02-02T18:01:25.109Z,0
2017-02-02T18:02:25.082Z,0
2017-02-02T18:03:25.052Z,0
2017-02-02T18:04:25.045Z,0
2017-02-02T18:05:25.014Z,0
2017-02-02T18:06:25.003Z,0
2017-02-02T18:07:25.002Z,0
2017-02-02T18:08:24.970Z,0
2017-02-02T18:09:24.955Z,0
2017-02-02T18:10:24.936Z,0
2017-02-02T18:11:24.919Z,0
2017-02-02T18:12:24.885Z,0
2017-02-02T18:13:24.879Z,0
2017-02-02T18:14:24.855Z,0
2017-02-02T18:15:24.470Z,0
2017-02-02T18:16:24.861Z,0
2017-02-02T18:17:24.805Z,0
2017-02-02T18:18:24.802Z,0
2017-02-02T18:19:24.800Z,0
2017-02-02T18:20:24.750Z,0
2017-02-02T18:21:24.774Z,0
2017-02-02T18:22:24.700Z,0
2017-02-02T18:23:24.693Z,0
2017-02-02T18:24:24.302Z,0
2017-02-02T18:25:24.269Z,0
2017-02-02T18:26:24.643Z,0
2017-02-02T18:27:24.849Z,0
2017-02-02T18:28:24.828Z,0
2017-02-02T18:29:24.601Z,0
2017-02-02T18:30:24.576Z,0
2017-02-02T18:31:24.535Z,0
2017-02-02T18:32:24.529Z,0
2017-02-02T18:33:24.494Z,0
2017-02-02T18:34:24.466Z,0
2017-02-02T18:35:24.480Z,0
2017-02-02T18:36:24.061Z,0
2017-02-02T18:37:24.439Z,0
2017-02-02T18:38:24.417Z,0
2017-02-02T18:39:24.413Z,0
2017-02-02T18:40:24.373Z,0
2017-02-02T18:41:24.398Z,0
2017-02-02T18:42:24.354Z,0
2017-02-02T18:43:24.336Z,0
2017-02-02T18:44:24.318Z,0
2017-02-02T18:45:24.300Z,0
2017-02-02T18:46:24.266Z,0
2017-02-02T18:47:24.286Z,0
2017-02-02T18:48:24.236Z,0
2017-02-02T18:49:24.203Z,0
2017-02-02T18:50:24.212Z,0
2017-02-02T18:51:24.188Z,0
2017-02-02T18:52:24.154Z,0
2017-02-02T18:53:24.129Z,0
2017-02-02T18:54:24.130Z,0
2017-02-02T18:55:24.105Z,0
2017-02-02T18:56:24.081Z,0
2017-02-02T18:57:24.067Z,0
2017-02-02T18:58:24.054Z,0
2017-02-02T18:59:24.027Z,0
2017-02-02T19:00:24.037Z,0
2017-02-02T19:01:23.997Z,0
2017-02-02T19:02:23.965Z,0
2017-02-02T19:03:23.943Z,0
2017-02-02T19:04:23.959Z,0
2017-02-02T19:05:23.528Z,0
2017-02-02T19:06:23.900Z,0
2017-02-02T19:07:23.879Z,0
2017-02-02T19:08:23.869Z,0
2017-02-02T19:09:23.842Z,0
2017-02-02T19:10:23.825Z,0
2017-02-02T19:11:23.801Z,0
2017-02-02T19:12:23.779Z,0
2017-02-02T19:13:23.763Z,0
2017-02-02T19:14:23.370Z,0
2017-02-02T19:15:23.750Z,0
2017-02-02T19:16:23.706Z,0
2017-02-02T19:17:23.689Z,0
2017-02-02T19:18:23.680Z,0
2017-02-02T19:19:23.660Z,0
2017-02-02T19:20:23.636Z,0
2017-02-02T19:21:23.617Z,0
2017-02-02T19:22:23.575Z,0
2017-02-02T19:23:23.581Z,0
2017-02-02T19:24:23.563Z,0
2017-02-02T19:25:23.545Z,0
2017-02-02T19:26:23.538Z,0
2017-02-02T19:27:23.515Z,0
2017-02-02T19:28:23.096Z,0
2017-02-02T19:29:23.079Z,0
2017-02-02T19:30:23.450Z,0
2017-02-02T19:31:23.036Z,0
2017-02-02T19:32:23.437Z,0
2017-02-02T19:33:23.384Z,0
2017-02-02T19:34:23.377Z,0
2017-02-02T19:35:23.366Z,0
2017-02-02T19:36:23.331Z,0
2017-02-02T19:37:23.301Z,0
2017-02-02T19:38:23.309Z,0
2017-02-02T19:39:23.269Z,0
2017-02-02T19:40:23.259Z,0
2017-02-02T19:41:23.238Z,0
2017-02-02T19:42:23.217Z,0
2017-02-02T19:43:23.223Z,0
2017-02-02T19:44:22.806Z,0
2017-02-02T19:45:23.185Z,0
2017-02-02T19:46:22.399Z,0
2017-02-02T19:47:23.166Z,0
2017-02-02T19:48:23.122Z,0
2017-02-02T19:49:23.109Z,0
2017-02-02T19:50:23.088Z,0
2017-02-02T19:51:23.076Z,0
2017-02-02T19:52:23.044Z,0
2017-02-02T19:53:23.015Z,0
2017-02-02T19:54:23.012Z,0
2017-02-02T19:55:22.989Z,0
2017-02-02T19:56:22.963Z,0
2017-02-02T19:57:22.964Z,0
2017-02-02T19:58:22.937Z,0
2017-02-02T19:59:22.898Z,0
2017-02-02T20:00:22.893Z,0
2017-02-02T20:01:22.903Z,0
2017-02-02T20:02:22.904Z,0
2017-02-02T20:03:22.873Z,0
2017-02-02T20:04:22.854Z,0
2017-02-02T20:05:22.848Z,0
2017-02-02T20:06:22.785Z,0
2017-02-02T20:07:22.769Z,0
2017-02-02T20:08:22.767Z,0
2017-02-02T20:09:22.762Z,0
2017-02-02T20:10:22.710Z,0
2017-02-02T20:11:22.691Z,0
2017-02-02T20:12:22.675Z,0
2017-02-02T20:13:22.657Z,0
2017-02-02T20:14:22.645Z,0
2017-02-02T20:15:22.631Z,0
2017-02-02T20:16:22.610Z,0
2017-02-02T20:17:22.605Z,0
2017-02-02T20:18:22.553Z,0
2017-02-02T20:19:22.562Z,0
2017-02-02T20:20:22.528Z,0
2017-02-02T20:21:22.134Z,0
2017-02-02T20:22:22.489Z,0
2017-02-02T20:23:22.466Z,0
2017-02-02T20:24:22.489Z,0
2017-02-02T20:25:22.437Z,0
2017-02-02T20:26:22.431Z,0
2017-02-02T20:27:22.399Z,0
2017-02-02T20:28:22.440Z,0
2017-02-02T20:29:22.396Z,0
2017-02-02T20:30:22.347Z,0
2017-02-02T20:31:22.335Z,0
2017-02-02T20:32:22.328Z,0
2017-02-02T20:33:22.282Z,0
2017-02-02T20:34:22.281Z,0
2017-02-02T20:35:22.284Z,0
2017-02-02T20:36:21.858Z,0
2017-02-02T20:37:22.235Z,0
2017-02-02T20:38:22.186Z,0
2017-02-02T20:39:21.805Z,0
2017-02-02T20:40:21.810Z,0
2017-02-02T20:41:22.156Z,0
2017-02-02T20:42:22.139Z,0
2017-02-02T20:43:21.735Z,0
2017-02-02T20:44:22.108Z,0
2017-02-02T20:45:21.698Z,0
2017-02-02T20:46:22.095Z,0
2017-02-02T20:47:22.032Z,0
2017-02-02T20:48:22.046Z,0
2017-02-02T20:49:22.014Z,0
2017-02-02T20:50:21.600Z,0
2017-02-02T20:51:21.966Z,0
2017-02-02T20:52:21.942Z,0
2017-02-02T20:53:21.942Z,0
2017-02-02T20:54:21.916Z,0
2017-02-02T20:55:21.899Z,0
2017-02-02T20:56:21.857Z,0
2017-02-02T20:57:21.487Z,0
2017-02-02T20:58:21.439Z,0
2017-02-02T20:59:21.819Z,0
2017-02-02T21:00:21.788Z,0
2017-02-02T21:01:21.782Z,0
2017-02-02T21:02:21.760Z,0
2017-02-02T21:03:21.771Z,0
2017-02-02T21:04:21.729Z,0
2017-02-02T21:05:21.550Z,0
2017-02-02T21:06:21.694Z,0
2017-02-02T21:07:21.301Z,0
2017-02-02T21:08:21.654Z,0
2017-02-02T21:09:21.245Z,0
2017-02-02T21:10:21.241Z,0
2017-02-02T21:11:21.588Z,0
2017-02-02T21:12:21.572Z,0
2017-02-02T21:13:21.543Z,0
2017-02-02T21:14:21.547Z,0
2017-02-02T21:15:21.538Z,0
2017-02-02T21:16:21.504Z,0
2017-02-02T21:17:21.106Z,0
2017-02-02T21:18:21.463Z,0
2017-02-02T21:19:21.439Z,0
2017-02-02T21:20:21.421Z,0
2017-02-02T21:21:21.423Z,0
2017-02-02T21:22:21.405Z,0
2017-02-02T21:23:21.377Z,0
2017-02-02T21:24:21.363Z,0
2017-02-02T21:25:21.332Z,0
2017-02-02T21:26:20.923Z,0
2017-02-02T21:27:21.286Z,0
2017-02-02T21:28:21.280Z,0
2017-02-02T21:29:21.259Z,0
2017-02-02T21:30:20.867Z,0
2017-02-02T21:31:21.230Z,0
2017-02-02T21:32:21.210Z,0
2017-02-02T21:33:20.803Z,0
2017-02-02T21:34:21.179Z,0
2017-02-02T21:35:21.149Z,0
2017-02-02T21:36:21.144Z,0
2017-02-02T21:37:21.128Z,0
2017-02-02T21:38:21.104Z,0
2017-02-02T21:39:21.083Z,0
2017-02-02T21:40:21.054Z,0
2017-02-02T21:41:21.046Z,0
2017-02-02T21:42:21.039Z,0
2017-02-02T21:43:20.620Z,0
2017-02-02T21:44:20.597Z,0
2017-02-02T21:45:20.962Z,0
2017-02-02T21:46:20.949Z,0
2017-02-02T21:47:20.934Z,0
2017-02-02T21:48:21.114Z,0
2017-02-02T21:49:20.891Z,0
2017-02-02T21:50:20.864Z,0
2017-02-02T21:51:20.856Z,0
2017-02-02T21:52:21.125Z,0
2017-02-02T21:53:20.810Z,0
2017-02-02T21:54:20.810Z,0
2017-02-02T21:55:20.783Z,0
2017-02-02T21:56:20.783Z,0
2017-02-02T21:57:20.784Z,0
2017-02-02T21:58:20.723Z,0
2017-02-02T21:59:20.694Z,0
2017-02-02T22:00:20.908Z,0
2017-02-02T22:01:20.671Z,0
2017-02-02T22:02:20.267Z,0
2017-02-02T22:03:20.614Z,0
2017-02-02T22:04:20.622Z,0
2017-02-02T22:05:20.587Z,0
2017-02-02T22:06:20.615Z,0
2017-02-02T22:07:20.576Z,0
2017-02-02T22:08:20.545Z,0
2017-02-02T22:09:20.512Z,0
2017-02-02T22:10:20.505Z,0
2017-02-02T22:11:20.488Z,0
2017-02-02T22:12:20.108Z,0
2017-02-02T22:13:20.463Z,0
2017-02-02T22:14:20.428Z,0
2017-02-02T22:15:20.419Z,0
2017-02-02T22:16:20.394Z,0
2017-02-02T22:17:20.388Z,0
2017-02-02T22:18:20.353Z,0
2017-02-02T22:19:20.344Z,0
2017-02-02T22:20:20.326Z,0
2017-02-02T22:21:20.278Z,0
2017-02-02T22:22:20.263Z,0
2017-02-02T22:23:20.266Z,0
2017-02-02T22:24:20.228Z,0
2017-02-02T22:25:20.212Z,0
2017-02-02T22:26:20.192Z,0
2017-02-02T22:27:20.171Z,0
2017-02-02T22:28:20.164Z,0
2017-02-02T22:29:20.138Z,0
2017-02-02T22:30:19.763Z,0
2017-02-02T22:31:20.119Z,0
2017-02-02T22:32:20.097Z,0
2017-02-02T22:33:19.307Z,0
2017-02-02T22:34:20.088Z,0
2017-02-02T22:35:19.651Z,0
2017-02-02T22:36:20.067Z,0
2017-02-02T22:37:20.009Z,0
2017-02-02T22:38:19.598Z,0
2017-02-02T22:39:19.595Z,0
2017-02-02T22:40:19.182Z,0
2017-02-02T22:41:19.541Z,0
2017-02-02T22:42:19.917Z,0
2017-02-02T22:43:19.902Z,0
2017-02-02T22:44:19.889Z,0
2017-02-02T22:45:19.459Z,0
2017-02-02T22:46:19.834Z,0
2017-02-02T22:47:19.824Z,0
2017-02-02T22:48:19.785Z,0
2017-02-02T22:49:19.779Z,0
2017-02-02T22:50:19.763Z,0
2017-02-02T22:51:19.729Z,0
2017-02-02T22:52:19.724Z,0
2017-02-02T22:53:19.698Z,0
2017-02-02T22:54:19.700Z,0
2017-02-02T22:55:19.655Z,0
2017-02-02T22:56:19.635Z,0
2017-02-02T22:57:19.248Z,0
2017-02-02T22:58:19.237Z,0
2017-02-02T22:59:19.586Z,0
2017-02-02T23:00:19.589Z,0
2017-02-02T23:01:19.559Z,0
2017-02-02T23:02:19.134Z,0
2017-02-02T23:03:19.509Z,0
2017-02-02T23:04:19.108Z,0
2017-02-02T23:05:19.457Z,0
2017-02-02T23:06:19.462Z,0
2017-02-02T23:07:19.450Z,0
2017-02-02T23:08:19.408Z,0
2017-02-02T23:09:19.412Z,0
2017-02-02T23:10:19.386Z,0
2017-02-02T23:11:19.368Z,0
2017-02-02T23:12:18.998Z,0
2017-02-02T23:13:19.329Z,0
2017-02-02T23:14:19.296Z,0
2017-02-02T23:15:19.283Z,0
2017-02-02T23:16:19.303Z,0
2017-02-02T23:17:19.259Z,0
2017-02-02T23:18:18.862Z,0
2017-02-02T23:19:19.206Z,0
2017-02-02T23:20:18.814Z,0
2017-02-02T23:21:19.191Z,0
2017-02-02T23:22:19.176Z,0
2017-02-02T23:23:19.133Z,0
2017-02-02T23:24:19.164Z,0
2017-02-02T23:25:18.701Z,0
2017-02-02T23:26:18.699Z,0
2017-02-02T23:27:19.081Z,0
2017-02-02T23:28:19.057Z,0
2017-02-02T23:29:19.029Z,0
2017-02-02T23:30:19.023Z,0
2017-02-02T23:31:18.997Z,0
2017-02-02T23:32:18.972Z,0
2017-02-02T23:33:18.571Z,0
2017-02-02T23:34:18.927Z,0
2017-02-02T23:35:18.964Z,0
2017-02-02T23:36:18.910Z,0
2017-02-02T23:37:18.911Z,0
2017-02-02T23:38:18.873Z,0
2017-02-02T23:39:18.841Z,0
2017-02-02T23:40:18.824Z,0
2017-02-02T23:41:18.815Z,0
2017-02-02T23:42:18.777Z,0
2017-02-02T23:43:18.746Z,0
2017-02-02T23:44:18.800Z,0
2017-02-02T23:45:18.752Z,0
2017-02-02T23:46:18.318Z,0
2017-02-02T23:47:18.711Z,0
2017-02-02T23:48:18.675Z,0
2017-02-02T23:49:18.645Z,0
2017-02-02T23:50:18.645Z,0
2017-02-02T23:51:18.626Z,0
2017-02-02T23:52:18.214Z,0
2017-02-02T23:53:18.576Z,0
2017-02-02T23:54:18.592Z,0
2017-02-02T23:55:18.544Z,0
2017-02-02T23:56:18.537Z,0
2017-02-02T23:57:18.495Z,0
2017-02-02T23:58:18.493Z,0
2017-02-02T23:59:18.452Z,0
